createdAt,value
2019-02-27T00:00:05.896Z,6.16
2019-02-27T00:01:05.887Z,6.03
2019-02-27T00:02:05.876Z,5.93
2019-02-27T00:03:05.872Z,5.96
2019-02-27T00:04:05.865Z,5.74
2019-02-27T00:05:05.987Z,5.77
2019-02-27T00:06:05.847Z,5.75
2019-02-27T00:07:05.836Z,5.67
2019-02-27T00:08:05.828Z,5.74
2019-02-27T00:09:05.826Z,5.60
2019-02-27T00:10:06.706Z,5.53
2019-02-27T00:11:05.810Z,5.45
2019-02-27T00:12:05.800Z,5.48
2019-02-27T00:13:05.791Z,5.50
2019-02-27T00:14:05.784Z,5.45
2019-02-27T00:15:06.016Z,5.43
2019-02-27T00:16:05.766Z,5.49
2019-02-27T00:17:05.756Z,5.28
2019-02-27T00:18:05.747Z,5.34
2019-02-27T00:19:05.741Z,5.27
2019-02-27T00:20:05.730Z,5.34
2019-02-27T00:21:10.049Z,5.27
2019-02-27T00:22:05.715Z,5.20
2019-02-27T00:23:05.706Z,5.20
2019-02-27T00:24:05.698Z,5.04
2019-02-27T00:25:05.689Z,4.99
2019-02-27T00:26:08.781Z,5.02
2019-02-27T00:27:05.674Z,5.04
2019-02-27T00:28:05.661Z,4.92
2019-02-27T00:29:05.655Z,4.79
2019-02-27T00:30:05.931Z,4.79
2019-02-27T00:31:05.654Z,4.70
2019-02-27T00:32:05.632Z,4.70
2019-02-27T00:33:05.623Z,4.64
2019-02-27T00:34:05.617Z,4.64
2019-02-27T00:35:07.288Z,4.62
2019-02-27T00:36:05.594Z,4.52
2019-02-27T00:37:05.587Z,4.61
2019-02-27T00:38:05.579Z,4.58
2019-02-27T00:39:05.573Z,4.67
2019-02-27T00:40:06.238Z,4.57
2019-02-27T00:41:05.555Z,4.55
2019-02-27T00:42:05.545Z,4.58
2019-02-27T00:43:05.538Z,4.59
2019-02-27T00:44:05.520Z,4.47
2019-02-27T00:45:07.057Z,4.46
2019-02-27T00:46:05.514Z,4.42
2019-02-27T00:47:05.503Z,4.37
2019-02-27T00:48:05.492Z,4.29
2019-02-27T00:49:05.486Z,4.36
2019-02-27T00:50:06.623Z,4.32
2019-02-27T00:51:05.469Z,4.29
2019-02-27T00:52:05.459Z,4.33
2019-02-27T00:53:05.464Z,4.34
2019-02-27T00:54:05.443Z,4.28
2019-02-27T00:55:05.435Z,4.29
2019-02-27T00:56:05.426Z,4.29
2019-02-27T00:57:05.416Z,4.37
2019-02-27T00:58:05.409Z,4.28
2019-02-27T00:59:05.399Z,4.36
2019-02-27T01:00:06.586Z,4.24
2019-02-27T01:01:05.379Z,4.25
2019-02-27T01:02:05.369Z,4.24
2019-02-27T01:03:05.371Z,3.98
2019-02-27T01:04:05.357Z,3.97
2019-02-27T01:05:06.186Z,3.90
2019-02-27T01:06:05.343Z,3.86
2019-02-27T01:07:05.330Z,3.88
2019-02-27T01:08:05.324Z,3.76
2019-02-27T01:09:06.380Z,3.76
2019-02-27T01:10:05.304Z,3.70
2019-02-27T01:11:05.295Z,3.70
2019-02-27T01:12:05.283Z,3.67
2019-02-27T01:13:05.266Z,3.60
2019-02-27T01:14:05.268Z,3.52
2019-02-27T01:15:05.258Z,3.54
2019-02-27T01:16:05.248Z,3.52
2019-02-27T01:17:05.239Z,3.58
2019-02-27T01:18:05.230Z,3.52
2019-02-27T01:19:05.371Z,3.67
2019-02-27T01:20:05.214Z,3.65
2019-02-27T01:21:05.204Z,3.82
2019-02-27T01:22:05.199Z,3.83
2019-02-27T01:23:05.189Z,3.85
2019-02-27T01:24:05.177Z,3.88
2019-02-27T01:25:05.166Z,3.92
2019-02-27T01:26:05.160Z,4.00
2019-02-27T01:27:05.390Z,4.18
2019-02-27T01:28:05.140Z,4.34
2019-02-27T01:29:05.135Z,4.36
2019-02-27T01:30:05.124Z,4.36
2019-02-27T01:31:05.112Z,4.34
2019-02-27T01:32:05.108Z,4.43
2019-02-27T01:33:05.097Z,4.39
2019-02-27T01:34:05.085Z,4.39
2019-02-27T01:35:05.087Z,4.42
2019-02-27T01:36:05.068Z,4.40
2019-02-27T01:37:05.059Z,4.57
2019-02-27T01:38:05.855Z,4.47
2019-02-27T01:39:05.042Z,4.47
2019-02-27T01:40:05.031Z,4.51
2019-02-27T01:41:05.023Z,4.55
2019-02-27T01:42:05.015Z,4.61
2019-02-27T01:43:06.329Z,4.59
2019-02-27T01:44:04.995Z,4.75
2019-02-27T01:45:04.992Z,4.76
2019-02-27T01:46:04.976Z,4.92
2019-02-27T01:47:04.980Z,5.13
2019-02-27T01:48:08.923Z,5.22
2019-02-27T01:49:04.952Z,5.34
2019-02-27T01:50:04.943Z,5.28
2019-02-27T01:51:04.933Z,5.25
2019-02-27T01:52:04.912Z,5.35
2019-02-27T01:53:07.082Z,5.45
2019-02-27T01:54:04.900Z,5.56
2019-02-27T01:55:04.905Z,5.56
2019-02-27T01:56:04.889Z,5.55
2019-02-27T01:57:04.892Z,5.48
2019-02-27T01:58:09.266Z,5.59
2019-02-27T01:59:04.857Z,5.63
2019-02-27T02:00:06.296Z,5.59
2019-02-27T02:01:04.851Z,5.52
2019-02-27T02:02:04.834Z,5.50
2019-02-27T02:03:04.828Z,5.48
2019-02-27T02:04:04.819Z,5.37
2019-02-27T02:05:04.812Z,5.34
2019-02-27T02:06:04.805Z,5.28
2019-02-27T02:07:06.643Z,5.31
2019-02-27T02:08:04.788Z,5.34
2019-02-27T02:09:04.774Z,5.38
2019-02-27T02:10:04.770Z,5.30
2019-02-27T02:11:04.758Z,5.31
2019-02-27T02:12:07.935Z,5.34
2019-02-27T02:13:04.741Z,5.34
2019-02-27T02:14:04.732Z,5.43
2019-02-27T02:15:04.723Z,5.49
2019-02-27T02:16:04.735Z,5.38
2019-02-27T02:17:05.045Z,5.50
2019-02-27T02:18:04.698Z,5.34
2019-02-27T02:19:05.370Z,5.28
2019-02-27T02:20:04.679Z,5.20
2019-02-27T02:21:04.674Z,5.07
2019-02-27T02:22:06.141Z,4.99
2019-02-27T02:23:04.657Z,5.05
2019-02-27T02:24:04.643Z,4.91
2019-02-27T02:25:04.635Z,4.91
2019-02-27T02:26:04.627Z,4.88
2019-02-27T02:27:07.784Z,4.76
2019-02-27T02:28:04.612Z,4.94
2019-02-27T02:29:04.600Z,4.92
2019-02-27T02:30:04.593Z,4.84
2019-02-27T02:31:05.423Z,4.86
2019-02-27T02:32:04.578Z,4.84
2019-02-27T02:33:04.565Z,4.80
2019-02-27T02:34:05.492Z,4.69
2019-02-27T02:35:04.552Z,4.61
2019-02-27T02:36:04.540Z,4.72
2019-02-27T02:37:04.539Z,4.77
2019-02-27T02:38:04.528Z,4.77
2019-02-27T02:39:04.514Z,4.76
2019-02-27T02:40:04.507Z,4.80
2019-02-27T02:41:07.960Z,4.72
2019-02-27T02:42:04.488Z,4.86
2019-02-27T02:43:04.485Z,4.70
2019-02-27T02:44:04.471Z,4.65
2019-02-27T02:45:04.460Z,4.54
2019-02-27T02:46:07.970Z,4.46
2019-02-27T02:47:04.495Z,4.54
2019-02-27T02:48:04.433Z,4.43
2019-02-27T02:49:07.922Z,4.40
2019-02-27T02:50:04.417Z,4.39
2019-02-27T02:51:04.405Z,4.32
2019-02-27T02:52:05.566Z,4.33
2019-02-27T02:53:04.390Z,4.29
2019-02-27T02:54:04.381Z,4.18
2019-02-27T02:55:04.374Z,4.25
2019-02-27T02:56:04.372Z,4.19
2019-02-27T02:57:05.069Z,4.10
2019-02-27T02:58:04.351Z,4.14
2019-02-27T02:59:04.332Z,4.03
2019-02-27T03:00:04.324Z,4.07
2019-02-27T03:01:04.325Z,3.92
2019-02-27T03:02:04.309Z,4.08
2019-02-27T03:03:04.304Z,3.98
2019-02-27T03:04:04.297Z,4.03
2019-02-27T03:05:04.286Z,4.07
2019-02-27T03:06:04.275Z,4.00
2019-02-27T03:07:07.161Z,4.08
2019-02-27T03:08:04.256Z,4.04
2019-02-27T03:09:04.246Z,4.04
2019-02-27T03:10:07.429Z,3.92
2019-02-27T03:11:04.228Z,3.86
2019-02-27T03:12:04.211Z,3.78
2019-02-27T03:13:07.147Z,3.71
2019-02-27T03:14:04.201Z,3.70
2019-02-27T03:15:04.195Z,3.75
2019-02-27T03:16:05.721Z,3.75
2019-02-27T03:17:04.179Z,3.75
2019-02-27T03:18:04.158Z,3.72
2019-02-27T03:19:06.221Z,3.71
2019-02-27T03:20:04.155Z,3.65
2019-02-27T03:21:04.136Z,3.58
2019-02-27T03:22:04.696Z,3.54
2019-02-27T03:23:04.119Z,3.60
2019-02-27T03:24:04.109Z,3.57
2019-02-27T03:25:05.528Z,3.64
2019-02-27T03:26:04.091Z,3.58
2019-02-27T03:27:04.084Z,3.52
2019-02-27T03:28:04.878Z,3.52
2019-02-27T03:29:04.060Z,3.53
2019-02-27T03:30:04.055Z,3.46
2019-02-27T03:31:04.046Z,3.43
2019-02-27T03:32:04.036Z,3.47
2019-02-27T03:33:04.026Z,3.50
2019-02-27T03:34:07.878Z,3.50
2019-02-27T03:35:04.021Z,3.36
2019-02-27T03:36:04.450Z,3.44
2019-02-27T03:37:03.979Z,3.50
2019-02-27T03:38:03.978Z,3.44
2019-02-27T03:39:03.971Z,3.60
2019-02-27T03:40:03.963Z,3.53
2019-02-27T03:41:03.964Z,3.64
2019-02-27T03:42:03.954Z,3.62
2019-02-27T03:43:10.210Z,3.67
2019-02-27T03:44:03.931Z,3.70
2019-02-27T03:45:03.917Z,3.60
2019-02-27T03:46:06.269Z,3.65
2019-02-27T03:47:03.895Z,3.76
2019-02-27T03:48:03.886Z,3.72
2019-02-27T03:49:04.645Z,3.78
2019-02-27T03:50:03.868Z,3.72
2019-02-27T03:51:03.863Z,3.65
2019-02-27T03:52:03.857Z,3.68
2019-02-27T03:53:03.841Z,3.64
2019-02-27T03:54:03.833Z,3.71
2019-02-27T03:55:03.827Z,3.68
2019-02-27T03:56:08.763Z,3.67
2019-02-27T03:57:03.811Z,3.68
2019-02-27T03:58:03.790Z,3.71
2019-02-27T03:59:06.237Z,3.89
2019-02-27T04:00:03.765Z,3.88
2019-02-27T04:01:03.764Z,4.01
2019-02-27T04:02:06.143Z,4.01
2019-02-27T04:03:03.741Z,4.03
2019-02-27T04:04:03.736Z,3.89
2019-02-27T04:05:07.162Z,3.96
2019-02-27T04:06:03.724Z,3.88
2019-02-27T04:07:03.731Z,3.89
2019-02-27T04:08:07.593Z,3.86
2019-02-27T04:09:03.690Z,3.89
2019-02-27T04:10:03.672Z,3.88
2019-02-27T04:11:05.865Z,3.89
2019-02-27T04:12:03.660Z,3.78
2019-02-27T04:13:03.657Z,3.83
2019-02-27T04:14:05.462Z,3.83
2019-02-27T04:15:03.643Z,3.67
2019-02-27T04:16:03.635Z,3.68
2019-02-27T04:17:06.962Z,3.64
2019-02-27T04:18:03.618Z,3.60
2019-02-27T04:19:05.089Z,3.50
2019-02-27T04:20:03.587Z,3.46
2019-02-27T04:21:03.592Z,3.27
2019-02-27T04:22:03.578Z,3.34
2019-02-27T04:23:03.565Z,3.18
2019-02-27T04:24:03.558Z,3.28
2019-02-27T04:25:03.540Z,3.15
2019-02-27T04:26:05.750Z,3.21
2019-02-27T04:27:03.520Z,3.18
2019-02-27T04:28:03.514Z,3.10
2019-02-27T04:29:04.434Z,3.16
2019-02-27T04:30:03.495Z,3.07
2019-02-27T04:31:03.484Z,2.97
2019-02-27T04:32:03.481Z,3.09
2019-02-27T04:33:03.465Z,3.15
2019-02-27T04:34:03.454Z,3.24
2019-02-27T04:35:05.889Z,3.40
2019-02-27T04:36:03.437Z,3.46
2019-02-27T04:37:03.429Z,3.54
2019-02-27T04:38:03.416Z,3.65
2019-02-27T04:39:03.407Z,3.70
2019-02-27T04:40:03.385Z,3.97
2019-02-27T04:41:03.382Z,3.96
2019-02-27T04:42:03.377Z,4.10
2019-02-27T04:43:03.369Z,4.26
2019-02-27T04:44:06.068Z,4.19
2019-02-27T04:45:03.349Z,4.24
2019-02-27T04:46:03.342Z,4.08
2019-02-27T04:47:03.330Z,4.03
2019-02-27T04:48:03.318Z,3.97
2019-02-27T04:49:04.899Z,3.89
2019-02-27T04:50:03.303Z,3.89
2019-02-27T04:51:03.297Z,4.04
2019-02-27T04:52:03.285Z,4.15
2019-02-27T04:53:03.273Z,4.21
2019-02-27T04:54:06.270Z,4.19
2019-02-27T04:55:03.258Z,4.03
2019-02-27T04:56:03.245Z,3.89
2019-02-27T04:57:03.237Z,3.86
2019-02-27T04:58:03.225Z,3.88
2019-02-27T04:59:03.206Z,3.88
2019-02-27T05:00:03.205Z,3.83
2019-02-27T05:01:03.197Z,3.79
2019-02-27T05:02:03.189Z,3.72
2019-02-27T05:03:03.177Z,3.70
2019-02-27T05:04:03.168Z,3.62
2019-02-27T05:05:03.160Z,3.49
2019-02-27T05:06:03.145Z,3.57
2019-02-27T05:07:03.137Z,3.36
2019-02-27T05:08:03.135Z,3.33
2019-02-27T05:09:03.120Z,3.18
2019-02-27T05:10:06.870Z,3.24
2019-02-27T05:11:03.108Z,3.15
2019-02-27T05:12:03.091Z,3.12
2019-02-27T05:13:03.084Z,3.12
2019-02-27T05:14:03.072Z,3.09
2019-02-27T05:15:04.193Z,3.09
2019-02-27T05:16:03.058Z,3.12
2019-02-27T05:17:03.090Z,3.09
2019-02-27T05:18:03.031Z,3.05
2019-02-27T05:19:03.974Z,2.98
2019-02-27T05:20:03.023Z,3.00
2019-02-27T05:21:03.007Z,3.02
2019-02-27T05:22:02.998Z,3.10
2019-02-27T05:23:02.992Z,3.10
2019-02-27T05:24:05.240Z,3.09
2019-02-27T05:25:02.965Z,3.07
2019-02-27T05:26:02.959Z,3.10
2019-02-27T05:27:02.949Z,2.98
2019-02-27T05:28:02.938Z,3.02
2019-02-27T05:29:02.925Z,2.82
2019-02-27T05:30:02.921Z,2.89
2019-02-27T05:31:02.912Z,2.87
2019-02-27T05:32:02.900Z,2.69
2019-02-27T05:33:02.942Z,2.76
2019-02-27T05:34:02.885Z,2.70
2019-02-27T05:35:02.873Z,2.66
2019-02-27T05:36:02.866Z,2.76
2019-02-27T05:37:05.233Z,2.69
2019-02-27T05:38:02.843Z,2.71
2019-02-27T05:39:02.834Z,2.84
2019-02-27T05:40:02.825Z,2.94
2019-02-27T05:41:02.818Z,2.95
2019-02-27T05:42:06.071Z,2.97
2019-02-27T05:43:02.796Z,3.06
2019-02-27T05:44:02.784Z,3.07
2019-02-27T05:45:02.775Z,3.12
2019-02-27T05:46:03.340Z,3.12
2019-02-27T05:47:02.756Z,2.92
2019-02-27T05:48:02.748Z,2.97
2019-02-27T05:49:02.737Z,3.15
2019-02-27T05:50:02.728Z,3.10
2019-02-27T05:51:07.045Z,3.15
2019-02-27T05:52:02.709Z,3.23
2019-02-27T05:53:02.700Z,3.25
2019-02-27T05:54:02.689Z,3.16
2019-02-27T05:55:06.140Z,3.23
2019-02-27T05:56:02.670Z,3.25
2019-02-27T05:57:02.662Z,3.20
2019-02-27T05:58:02.653Z,3.16
2019-02-27T05:59:02.641Z,3.12
2019-02-27T06:00:03.438Z,3.05
2019-02-27T06:01:05.033Z,3.09
2019-02-27T06:02:02.610Z,2.95
2019-02-27T06:03:02.603Z,3.10
2019-02-27T06:04:02.593Z,3.15
2019-02-27T06:05:02.581Z,3.25
2019-02-27T06:06:02.586Z,3.20
2019-02-27T06:07:02.569Z,3.13
2019-02-27T06:08:02.881Z,3.23
2019-02-27T06:09:02.542Z,3.15
2019-02-27T06:10:02.576Z,3.24
2019-02-27T06:11:02.526Z,3.25
2019-02-27T06:12:06.520Z,3.24
2019-02-27T06:13:02.508Z,3.27
2019-02-27T06:14:02.499Z,3.20
2019-02-27T06:15:02.484Z,3.46
2019-02-27T06:16:03.832Z,3.46
2019-02-27T06:17:02.467Z,3.64
2019-02-27T06:18:02.457Z,3.62
2019-02-27T06:19:02.451Z,3.70
2019-02-27T06:20:02.429Z,3.82
2019-02-27T06:21:02.425Z,3.96
2019-02-27T06:22:02.410Z,4.12
2019-02-27T06:23:04.396Z,4.22
2019-02-27T06:24:02.407Z,4.16
2019-02-27T06:25:02.394Z,4.39
2019-02-27T06:26:02.386Z,4.47
2019-02-27T06:27:06.083Z,4.61
2019-02-27T06:28:02.363Z,4.65
2019-02-27T06:29:02.356Z,4.80
2019-02-27T06:30:02.350Z,5.01
2019-02-27T06:31:02.728Z,5.07
2019-02-27T06:32:02.333Z,5.32
2019-02-27T06:33:02.323Z,5.38
2019-02-27T06:34:02.306Z,5.48
2019-02-27T06:35:02.307Z,5.60
2019-02-27T06:36:02.295Z,5.75
2019-02-27T06:37:02.289Z,5.77
2019-02-27T06:38:02.285Z,5.93
2019-02-27T06:39:02.270Z,5.96
2019-02-27T06:40:04.722Z,5.85
2019-02-27T06:41:02.249Z,5.71
2019-02-27T06:42:02.237Z,5.77
2019-02-27T06:43:02.252Z,5.68
2019-02-27T06:44:02.262Z,5.67
2019-02-27T06:45:02.228Z,5.63
2019-02-27T06:46:02.217Z,5.68
2019-02-27T06:47:02.205Z,5.74
2019-02-27T06:48:02.197Z,5.86
2019-02-27T06:49:02.188Z,5.91
2019-02-27T06:50:02.185Z,6.21
2019-02-27T06:51:02.169Z,6.14
2019-02-27T06:52:02.178Z,6.38
2019-02-27T06:53:02.166Z,6.51
2019-02-27T06:54:02.143Z,6.77
2019-02-27T06:55:02.146Z,7.15
2019-02-27T06:56:03.435Z,7.15
2019-02-27T06:57:02.132Z,7.35
2019-02-27T06:58:02.125Z,7.35
2019-02-27T06:59:02.118Z,7.31
2019-02-27T07:00:03.080Z,7.31
2019-02-27T07:01:02.103Z,7.49
2019-02-27T07:02:02.099Z,7.66
2019-02-27T07:03:02.088Z,7.59
2019-02-27T07:04:02.239Z,7.78
2019-02-27T07:05:02.085Z,7.97
2019-02-27T07:06:02.075Z,8.08
2019-02-27T07:07:02.067Z,8.37
2019-02-27T07:08:02.134Z,8.50
2019-02-27T07:09:02.054Z,8.86
2019-02-27T07:10:02.053Z,8.91
2019-02-27T07:11:10.408Z,8.94
2019-02-27T07:12:02.033Z,8.97
2019-02-27T07:13:02.035Z,9.25
2019-02-27T07:14:02.023Z,9.31
2019-02-27T07:15:02.021Z,9.38
2019-02-27T07:16:02.014Z,9.35
2019-02-27T07:17:02.014Z,9.38
2019-02-27T07:18:03.493Z,9.52
2019-02-27T07:19:01.999Z,9.48
2019-02-27T07:20:01.996Z,9.48
2019-02-27T07:21:01.987Z,9.49
2019-02-27T07:22:01.984Z,9.46
2019-02-27T07:23:01.982Z,9.57
2019-02-27T07:24:01.978Z,9.83
2019-02-27T07:25:06.364Z,10.28
2019-02-27T07:26:01.971Z,10.28
2019-02-27T07:27:01.963Z,10.46
2019-02-27T07:28:03.438Z,10.44
2019-02-27T07:29:01.956Z,10.36
2019-02-27T07:30:01.949Z,10.55
2019-02-27T07:31:01.963Z,10.78
2019-02-27T07:32:01.954Z,10.66
2019-02-27T07:33:03.724Z,10.34
2019-02-27T07:34:01.932Z,10.43
2019-02-27T07:35:01.934Z,11.09
2019-02-27T07:36:03.621Z,11.77
2019-02-27T07:37:01.919Z,12.23
2019-02-27T07:38:01.914Z,12.84
2019-02-27T07:39:01.916Z,13.24
2019-02-27T07:40:01.918Z,13.91
2019-02-27T07:41:01.904Z,14.65
2019-02-27T07:42:01.903Z,15.21
2019-02-27T07:43:03.248Z,15.68
2019-02-27T07:44:02.043Z,15.66
2019-02-27T07:45:01.895Z,16.14
2019-02-27T07:46:01.889Z,16.49
2019-02-27T07:47:01.929Z,17.11
2019-02-27T07:48:01.882Z,17.15
2019-02-27T07:49:01.878Z,17.06
2019-02-27T07:50:02.736Z,16.83
2019-02-27T07:51:01.879Z,16.71
2019-02-27T07:52:01.875Z,16.96
2019-02-27T07:53:01.874Z,17.10
2019-02-27T07:54:03.875Z,16.90
2019-02-27T07:55:01.872Z,16.75
2019-02-27T07:56:01.871Z,17.08
2019-02-27T07:57:01.870Z,17.69
2019-02-27T07:58:01.870Z,18.44
2019-02-27T07:59:01.867Z,19.08
2019-02-27T08:00:01.868Z,19.68
2019-02-27T08:01:01.865Z,20.00
2019-02-27T08:02:03.058Z,20.23
2019-02-27T08:03:01.868Z,20.43
2019-02-27T08:04:01.869Z,20.16
2019-02-27T08:05:01.872Z,20.25
2019-02-27T08:06:02.440Z,20.02
2019-02-27T08:07:01.878Z,19.70
2019-02-27T08:08:01.875Z,19.39
2019-02-27T08:09:01.885Z,19.38
2019-02-27T08:10:04.590Z,19.32
2019-02-27T08:11:01.875Z,19.60
2019-02-27T08:12:01.877Z,19.68
2019-02-27T08:13:01.878Z,18.62
2019-02-27T08:14:03.248Z,19.24
2019-02-27T08:15:01.883Z,19.80
2019-02-27T08:16:01.898Z,20.53
2019-02-27T08:17:02.506Z,20.51
2019-02-27T08:18:01.987Z,20.76
2019-02-27T08:19:01.891Z,20.84
2019-02-27T08:20:01.895Z,21.21
2019-02-27T08:21:01.894Z,21.29
2019-02-27T08:22:01.898Z,21.05
2019-02-27T08:23:01.902Z,20.51
2019-02-27T08:24:06.446Z,20.35
2019-02-27T08:25:01.908Z,19.68
2019-02-27T08:26:04.769Z,19.33
2019-02-27T08:27:01.918Z,19.42
2019-02-27T08:28:01.916Z,19.46
2019-02-27T08:29:01.921Z,19.88
2019-02-27T08:30:01.926Z,20.41
2019-02-27T08:31:01.928Z,21.30
2019-02-27T08:32:01.930Z,21.74
2019-02-27T08:33:01.936Z,22.53
2019-02-27T08:34:01.939Z,22.89
2019-02-27T08:35:01.943Z,23.27
2019-02-27T08:36:01.952Z,23.31
2019-02-27T08:37:01.949Z,22.90
2019-02-27T08:38:02.894Z,22.62
2019-02-27T08:39:01.959Z,21.81
2019-02-27T08:40:01.968Z,21.36
2019-02-27T08:41:01.970Z,20.81
2019-02-27T08:42:03.572Z,21.44
2019-02-27T08:43:01.984Z,21.94
2019-02-27T08:44:01.984Z,22.47
2019-02-27T08:45:01.993Z,22.67
2019-02-27T08:46:02.653Z,22.92
2019-02-27T08:47:04.120Z,23.05
2019-02-27T08:48:01.997Z,23.14
2019-02-27T08:49:02.013Z,23.20
2019-02-27T08:50:02.016Z,23.32
2019-02-27T08:51:05.692Z,23.82
2019-02-27T08:52:02.030Z,24.10
2019-02-27T08:53:02.032Z,24.10
2019-02-27T08:54:02.036Z,23.77
2019-02-27T08:55:05.417Z,23.94
2019-02-27T08:56:02.039Z,23.83
2019-02-27T08:57:02.058Z,23.80
2019-02-27T08:58:02.056Z,24.32
2019-02-27T08:59:05.044Z,24.24
2019-02-27T09:00:02.078Z,24.19
2019-02-27T09:01:02.075Z,24.05
2019-02-27T09:02:02.085Z,23.71
2019-02-27T09:03:02.919Z,23.98
2019-02-27T09:04:02.102Z,24.38
2019-02-27T09:05:02.107Z,24.85
2019-02-27T09:06:02.114Z,24.95
2019-02-27T09:07:02.591Z,25.38
2019-02-27T09:08:02.125Z,25.59
2019-02-27T09:09:02.126Z,24.57
2019-02-27T09:10:02.138Z,24.54
2019-02-27T09:11:05.494Z,23.35
2019-02-27T09:12:03.149Z,24.08
2019-02-27T09:13:05.895Z,24.02
2019-02-27T09:14:02.164Z,24.42
2019-02-27T09:15:02.176Z,24.16
2019-02-27T09:16:02.220Z,22.99
2019-02-27T09:17:02.189Z,23.22
2019-02-27T09:18:02.491Z,22.99
2019-02-27T09:19:02.205Z,23.15
2019-02-27T09:20:02.213Z,24.34
2019-02-27T09:21:02.215Z,24.87
2019-02-27T09:22:02.408Z,25.42
2019-02-27T09:23:02.232Z,25.42
2019-02-27T09:24:02.238Z,25.82
2019-02-27T09:25:02.248Z,25.61
2019-02-27T09:26:02.813Z,25.25
2019-02-27T09:27:02.261Z,25.57
2019-02-27T09:28:03.547Z,25.13
2019-02-27T09:29:02.278Z,24.59
2019-02-27T09:30:02.833Z,23.09
2019-02-27T09:31:04.242Z,24.53
2019-02-27T09:32:02.301Z,25.19
2019-02-27T09:33:02.316Z,25.28
2019-02-27T09:34:02.322Z,24.59
2019-02-27T09:35:02.328Z,22.93
2019-02-27T09:36:02.335Z,22.52
2019-02-27T09:37:02.346Z,21.59
2019-02-27T09:38:02.359Z,22.72
2019-02-27T09:39:02.363Z,22.38
2019-02-27T09:40:05.742Z,22.07
2019-02-27T09:41:02.376Z,23.20
2019-02-27T09:42:02.385Z,23.95
2019-02-27T09:43:02.393Z,24.53
2019-02-27T09:44:02.401Z,24.69
2019-02-27T09:45:02.408Z,24.39
2019-02-27T09:46:02.416Z,24.22
2019-02-27T09:47:02.429Z,24.35
2019-02-27T09:48:02.475Z,24.56
2019-02-27T09:49:06.863Z,24.16
2019-02-27T09:50:02.452Z,24.08
2019-02-27T09:51:02.463Z,24.67
2019-02-27T09:52:02.468Z,25.13
2019-02-27T09:53:03.482Z,24.61
2019-02-27T09:54:02.487Z,23.49
2019-02-27T09:55:02.496Z,23.24
2019-02-27T09:56:02.508Z,22.99
2019-02-27T09:57:02.890Z,23.14
2019-02-27T09:58:02.523Z,23.55
2019-02-27T09:59:02.532Z,21.94
2019-02-27T10:00:02.990Z,22.87
2019-02-27T10:01:03.260Z,23.38
2019-02-27T10:02:02.567Z,24.39
2019-02-27T10:03:02.565Z,24.95
2019-02-27T10:04:02.590Z,24.63
2019-02-27T10:05:03.721Z,25.02
2019-02-27T10:06:02.594Z,24.59
2019-02-27T10:07:02.603Z,23.14
2019-02-27T10:08:02.603Z,23.35
2019-02-27T10:09:02.620Z,23.83
2019-02-27T10:10:02.634Z,24.54
2019-02-27T10:11:02.639Z,24.50
2019-02-27T10:12:02.644Z,25.02
2019-02-27T10:13:03.283Z,25.10
2019-02-27T10:14:02.667Z,25.16
2019-02-27T10:15:02.671Z,25.52
2019-02-27T10:16:03.738Z,24.37
2019-02-27T10:17:02.693Z,23.97
2019-02-27T10:18:02.705Z,23.90
2019-02-27T10:19:02.712Z,23.68
2019-02-27T10:20:02.963Z,24.71
2019-02-27T10:21:02.739Z,25.38
2019-02-27T10:22:02.742Z,25.00
2019-02-27T10:23:02.754Z,25.12
2019-02-27T10:24:04.813Z,22.89
2019-02-27T10:25:02.769Z,23.01
2019-02-27T10:26:02.778Z,22.50
2019-02-27T10:27:03.224Z,22.14
2019-02-27T10:28:04.455Z,21.74
2019-02-27T10:29:02.804Z,21.91
2019-02-27T10:30:11.135Z,21.75
2019-02-27T10:31:02.823Z,21.11
2019-02-27T10:32:02.841Z,20.34
2019-02-27T10:33:03.496Z,19.90
2019-02-27T10:34:02.853Z,20.27
2019-02-27T10:35:02.859Z,19.79
2019-02-27T10:36:03.663Z,19.66
2019-02-27T10:37:02.933Z,19.15
2019-02-27T10:38:02.883Z,19.06
2019-02-27T10:39:02.907Z,20.23
2019-02-27T10:40:02.899Z,20.15
2019-02-27T10:41:02.910Z,19.94
2019-02-27T10:42:02.918Z,19.01
2019-02-27T10:43:02.927Z,19.51
2019-02-27T10:44:02.933Z,19.28
2019-02-27T10:45:02.944Z,19.43
2019-02-27T10:46:02.950Z,20.72
2019-02-27T10:47:02.958Z,20.23
2019-02-27T10:48:02.978Z,20.83
2019-02-27T10:49:02.974Z,20.76
2019-02-27T10:50:03.177Z,20.66
2019-02-27T10:51:02.986Z,21.45
2019-02-27T10:52:03.000Z,20.77
2019-02-27T10:53:03.021Z,20.51
2019-02-27T10:54:05.312Z,20.00
2019-02-27T10:55:03.019Z,19.97
2019-02-27T10:56:03.025Z,20.28
2019-02-27T10:57:03.043Z,19.94
2019-02-27T10:58:03.040Z,19.32
2019-02-27T10:59:03.052Z,20.08
2019-02-27T11:00:03.054Z,20.03
2019-02-27T11:01:03.078Z,20.34
2019-02-27T11:02:03.066Z,21.13
2019-02-27T11:03:03.075Z,22.19
2019-02-27T11:04:03.768Z,20.98
2019-02-27T11:05:03.091Z,21.34
2019-02-27T11:06:03.098Z,21.39
2019-02-27T11:07:03.101Z,20.59
2019-02-27T11:08:03.116Z,20.58
2019-02-27T11:09:04.658Z,20.49
2019-02-27T11:10:03.126Z,20.49
2019-02-27T11:11:03.127Z,20.89
2019-02-27T11:12:03.133Z,20.61
2019-02-27T11:13:06.684Z,20.80
2019-02-27T11:14:03.152Z,20.93
2019-02-27T11:15:03.154Z,21.51
2019-02-27T11:16:03.165Z,20.28
2019-02-27T11:17:03.438Z,19.91
2019-02-27T11:18:05.627Z,20.39
2019-02-27T11:19:03.180Z,21.08
2019-02-27T11:20:03.192Z,21.78
2019-02-27T11:21:03.200Z,20.80
2019-02-27T11:22:03.201Z,20.53
2019-02-27T11:23:06.532Z,20.02
2019-02-27T11:24:03.215Z,20.72
2019-02-27T11:25:03.228Z,21.36
2019-02-27T11:26:03.219Z,20.87
2019-02-27T11:27:03.425Z,20.41
2019-02-27T11:28:03.242Z,20.51
2019-02-27T11:29:03.249Z,20.77
2019-02-27T11:30:03.345Z,20.74
2019-02-27T11:31:03.265Z,21.02
2019-02-27T11:32:03.268Z,21.71
2019-02-27T11:33:03.279Z,22.02
2019-02-27T11:34:05.028Z,20.42
2019-02-27T11:35:03.294Z,20.16
2019-02-27T11:36:05.647Z,20.09
2019-02-27T11:37:04.355Z,20.30
2019-02-27T11:38:03.317Z,19.90
2019-02-27T11:39:04.777Z,20.43
2019-02-27T11:40:05.320Z,20.64
2019-02-27T11:41:03.343Z,21.21
2019-02-27T11:42:03.344Z,20.72
2019-02-27T11:43:06.693Z,20.56
2019-02-27T11:44:03.349Z,20.54
2019-02-27T11:45:03.358Z,20.16
2019-02-27T11:46:03.367Z,20.46
2019-02-27T11:47:03.376Z,20.05
2019-02-27T11:48:03.387Z,20.54
2019-02-27T11:49:03.379Z,20.77
2019-02-27T11:50:03.414Z,20.06
2019-02-27T11:51:03.397Z,19.61
2019-02-27T11:52:03.403Z,20.33
2019-02-27T11:53:03.404Z,20.41
2019-02-27T11:54:04.284Z,21.27
2019-02-27T11:55:03.425Z,21.44
2019-02-27T11:56:03.432Z,21.41
2019-02-27T11:57:03.437Z,20.91
2019-02-27T11:58:05.401Z,20.38
2019-02-27T11:59:03.453Z,20.33
2019-02-27T12:00:03.454Z,20.68
2019-02-27T12:01:03.458Z,20.80
2019-02-27T12:02:03.465Z,20.90
2019-02-27T12:03:03.472Z,21.44
2019-02-27T12:04:03.476Z,21.63
2019-02-27T12:05:03.484Z,22.87
2019-02-27T12:06:05.348Z,22.35
2019-02-27T12:07:03.494Z,21.32
2019-02-27T12:08:03.523Z,20.66
2019-02-27T12:09:03.590Z,20.83
2019-02-27T12:10:03.511Z,20.39
2019-02-27T12:11:03.519Z,20.56
2019-02-27T12:12:03.526Z,20.72
2019-02-27T12:13:03.531Z,21.08
2019-02-27T12:14:03.535Z,21.64
2019-02-27T12:15:03.544Z,21.30
2019-02-27T12:16:03.549Z,20.74
2019-02-27T12:17:03.559Z,20.35
2019-02-27T12:18:03.562Z,20.64
2019-02-27T12:19:03.572Z,20.66
2019-02-27T12:20:03.576Z,20.93
2019-02-27T12:21:03.590Z,20.62
2019-02-27T12:22:03.588Z,21.05
2019-02-27T12:23:03.596Z,21.21
2019-02-27T12:24:05.361Z,22.13
2019-02-27T12:25:03.607Z,21.48
2019-02-27T12:26:03.616Z,20.80
2019-02-27T12:27:03.619Z,19.95
2019-02-27T12:28:03.625Z,19.78
2019-02-27T12:29:03.630Z,19.91
2019-02-27T12:30:04.007Z,20.64
2019-02-27T12:31:03.639Z,20.64
2019-02-27T12:32:03.645Z,21.08
2019-02-27T12:33:03.656Z,21.72
2019-02-27T12:34:03.660Z,22.07
2019-02-27T12:35:03.664Z,21.41
2019-02-27T12:36:03.672Z,21.46
2019-02-27T12:37:03.675Z,20.81
2019-02-27T12:38:07.184Z,19.47
2019-02-27T12:39:03.683Z,18.94
2019-02-27T12:40:03.692Z,18.55
2019-02-27T12:41:03.703Z,18.50
2019-02-27T12:42:04.151Z,18.40
2019-02-27T12:43:03.713Z,18.17
2019-02-27T12:44:03.714Z,17.84
2019-02-27T12:45:03.717Z,17.81
2019-02-27T12:46:03.723Z,17.71
2019-02-27T12:47:05.480Z,17.69
2019-02-27T12:48:03.733Z,17.62
2019-02-27T12:49:03.735Z,17.51
2019-02-27T12:50:03.748Z,17.53
2019-02-27T12:51:04.424Z,17.40
2019-02-27T12:52:03.744Z,17.33
2019-02-27T12:53:03.745Z,17.51
2019-02-27T12:54:03.749Z,17.46
2019-02-27T12:55:03.777Z,17.57
2019-02-27T12:56:03.749Z,17.59
2019-02-27T12:57:03.750Z,17.44
2019-02-27T12:58:03.805Z,17.69
2019-02-27T12:59:03.748Z,17.67
2019-02-27T13:00:05.737Z,17.46
2019-02-27T13:01:03.748Z,17.50
2019-02-27T13:02:08.325Z,17.91
2019-02-27T13:03:08.439Z,17.91
2019-02-27T13:04:03.745Z,17.70
2019-02-27T13:05:03.750Z,17.64
2019-02-27T13:06:03.744Z,17.44
2019-02-27T13:07:03.738Z,17.44